Terminal Aerodrome Forecast
Issued by NWS

Home | Current Version | Previous Version | Text Only | Print | Product List | Glossary On
Versions: 1 2 3 4 5 6 7 8 9 10 11 12 13 14 15 16 17 18 19 20 21 22 23 24 25 26 27 28 29 30 31 32 33 34 35 36 37 38 39 40 41 42 43 44 45 46 47 48 49 50
000
FTUS45 KBOU 032255 AAA
TAFBJC
TAF AMD
KBJC 032255Z 0323/0418 09008KT 3SM -SN BR SCT008 OVC015
      TEMPO 0323/0403 1SM -SN BR BKN007
     FM040300 36015G22KT 2SM -SN BR BKN005 OVC008
      TEMPO 0403/0406 1/2SM SN BLSN VV005
     FM040700 04009KT 2SM -SN BR SCT006 OVC012
     FM041600 08006KT P6SM BKN010 OVC020=

USA.gov is the U.S. government's official web portal to all federal, state and local government web resources and services.